Aérodrome :
LOGIN :

S'inscrire | Disclaimer

   EN    FR    IT 

 










Légende :    VFR   VFR Marginal   IFR   IFR Intensif   IFR Très Intensif
Visi : 
Plafond : 
>= 8 km
>= 3000ft
5 à 8 km
1000 à 3000 ft
1500m à 5 km
500 à 1000 ft
800 à 1500m
200 à 500 ft
< 800m
< 200 ft
Symboles :   Orages  Brouillard  Fortes neiges  Fortes précipitations  Vent > 20 kt
SIGMETs :   Divers  Orages  Givrage  Turbulence  Onde Orograph.  Cendres Volcan.







- Altitude de l'aérodrome : 42 ft
- Code IATA : CAL
- Voir les cartes d'approche


EGEC - Campbeltown

DERNIER METAR :
  • 221350Z 28010KT 9999 FEW012 BKN048 03/01 Q0995

METARs EXPIRÉS :
  • 221320Z 27024KT 9999 FEW011 SCT033 BKN048 03/00 Q0995
  • 221250Z 29014KT 9999 FEW018 BKN038 05/01 Q0995
  • 221220Z 33011KT 9999 9000E VCSH FEW014 BKN038 03/01 Q0996 RESHGS
  • 221150Z 32012KT 9999 FEW023 SCT030 BKN048 04/02 Q0996
  • 221120Z 31011KT 9999 SCT027 03/M00 Q0996

TAF TAF EGEC
Valide du 22 à 12h jusqu'au 22 à 18h UTC


221059Z 2212/2218 29012KT 9999 SCT025
TEMPO 2212/2218 31020G30KT 4000 SHSN SHGS BKN012 BKN020CB
Pas de NOTAMs connus pour ce terrain.
1 SIGMET publié pour la FIR Scottish (EGPX) :
 
Turbulence forte
EGPX SIGMET 02 VALID 221030/221430 EGRR
EGPX SCOTTISH FIR SEV TURB FCST WI N5355 W00530 - N5425 W00810 - N5520 W00655 - N5525 W00720 - N5520 W00815 - N5448 W00856 - N5552 W01000 - N5850 W01000 - N5429 W00530 - N5355 W00530 FL160/400 MOV E 15KT NC=



MET'MAP, la Météo Aéronautique d'un coup d'oeil ! - Copyright ORBIFLY Décembre 2007 - Disclaimer

ORBIFLY MET'MAP TEAM :

Programmation & Développement : Alexandra Zaïnal
Conception & Développement : Baudouin d'Aumeries
Co-Programmation & Développement : Marc-Olivier Méhu
Soutien technique & logistique : Manuel Goepfert

Contact : metmap@orbifly.com




SOURCES & CREDITS :

   NOAA